createdAt,value
2018-02-05T00:00:25.238Z,13.70
2018-02-05T00:00:57.241Z,13.70
2018-02-05T00:01:29.360Z,13.70
2018-02-05T00:02:01.335Z,13.70
2018-02-05T00:02:33.465Z,13.70
2018-02-05T00:03:05.468Z,13.70
2018-02-05T00:03:38.287Z,13.70
2018-02-05T00:04:10.286Z,13.70
2018-02-05T00:04:42.537Z,13.70
2018-02-05T00:05:14.640Z,13.70
2018-02-05T00:05:46.663Z,13.70
2018-02-05T00:06:19.523Z,13.70
2018-02-05T00:06:52.572Z,13.70
2018-02-05T00:07:24.573Z,13.70
2018-02-05T00:07:56.490Z,13.70
2018-02-05T00:08:29.235Z,13.70
2018-02-05T00:09:01.277Z,13.70
2018-02-05T00:09:33.306Z,13.70
2018-02-05T00:10:05.303Z,13.70
2018-02-05T00:10:37.283Z,13.70
2018-02-05T00:11:10.161Z,13.70
2018-02-05T00:11:42.132Z,13.70
2018-02-05T00:12:14.308Z,13.70
2018-02-05T00:12:46.427Z,13.70
2018-02-05T00:13:18.506Z,13.70
2018-02-05T00:13:50.520Z,13.70
2018-02-05T00:14:22.589Z,13.70
2018-02-05T00:14:54.762Z,13.70
2018-02-05T00:15:26.881Z,13.70
2018-02-05T00:15:59.224Z,13.70
2018-02-05T00:16:32.039Z,13.70
2018-02-05T00:17:04.034Z,13.70
2018-02-05T00:17:37.000Z,13.70
2018-02-05T00:18:08.973Z,13.70
2018-02-05T00:18:41.267Z,13.70
2018-02-05T00:19:13.470Z,13.70
2018-02-05T00:19:46.486Z,13.70
2018-02-05T00:20:18.921Z,13.70
2018-02-05T00:20:51.099Z,13.70
2018-02-05T00:21:22.998Z,13.70
2018-02-05T00:21:54.924Z,13.70
2018-02-05T00:22:26.940Z,13.70
2018-02-05T00:22:58.960Z,13.70
2018-02-05T00:23:31.927Z,13.70
2018-02-05T00:24:04.118Z,13.70
2018-02-05T00:24:36.243Z,13.70
2018-02-05T00:25:09.266Z,13.70
2018-02-05T00:25:41.468Z,13.70
2018-02-05T00:26:14.556Z,13.70
2018-02-05T00:26:47.541Z,13.80
2018-02-05T00:27:19.712Z,13.70
2018-02-05T00:27:51.806Z,13.70
2018-02-05T00:28:24.117Z,13.70
2018-02-05T00:28:56.082Z,13.70
2018-02-05T00:29:28.165Z,13.70
2018-02-05T00:30:00.229Z,13.70
2018-02-05T00:30:32.930Z,13.80
2018-02-05T00:31:05.044Z,13.80
2018-02-05T00:31:36.988Z,13.80
2018-02-05T00:32:09.793Z,13.80
2018-02-05T00:32:42.195Z,13.80
2018-02-05T00:33:14.308Z,13.80
2018-02-05T00:33:46.279Z,13.80
2018-02-05T00:34:18.324Z,13.80
2018-02-05T00:34:50.322Z,13.80
2018-02-05T00:35:22.554Z,13.80
2018-02-05T00:35:54.694Z,13.80
2018-02-05T00:36:26.750Z,13.80
2018-02-05T00:36:59.084Z,13.80
2018-02-05T00:37:31.202Z,13.80
2018-02-05T00:38:03.307Z,13.80
2018-02-05T00:38:35.454Z,13.70
2018-02-05T00:39:07.497Z,13.70
2018-02-05T00:39:39.452Z,13.70
2018-02-05T00:40:11.433Z,13.70
2018-02-05T00:40:43.345Z,13.70
2018-02-05T00:41:15.402Z,13.80
2018-02-05T00:41:47.560Z,13.80
2018-02-05T00:42:19.608Z,13.80
2018-02-05T00:42:51.632Z,13.80
2018-02-05T00:43:24.360Z,13.70
2018-02-05T00:43:56.426Z,13.70
2018-02-05T00:44:28.415Z,13.70
2018-02-05T00:45:00.810Z,13.70
2018-02-05T00:45:32.881Z,13.70
2018-02-05T00:46:04.871Z,13.70
2018-02-05T00:46:37.737Z,13.70
2018-02-05T00:47:10.485Z,13.70
2018-02-05T00:47:42.620Z,13.70
2018-02-05T00:48:14.641Z,13.70
2018-02-05T00:48:46.787Z,13.70
2018-02-05T00:49:18.739Z,13.70
2018-02-05T00:49:50.729Z,13.70
2018-02-05T00:50:22.742Z,13.70
2018-02-05T00:50:54.918Z,13.80
2018-02-05T00:51:27.028Z,13.80
2018-02-05T00:51:59.064Z,13.70
2018-02-05T00:52:31.831Z,13.70
2018-02-05T00:53:04.508Z,13.70
2018-02-05T00:53:36.401Z,13.70
2018-02-05T00:54:08.673Z,13.70
2018-02-05T00:54:40.664Z,13.80
2018-02-05T00:55:13.473Z,13.70
2018-02-05T00:55:45.466Z,13.70
2018-02-05T00:56:18.311Z,13.80
2018-02-05T00:56:50.628Z,13.80
2018-02-05T00:57:22.590Z,13.80
2018-02-05T00:57:54.641Z,13.80
2018-02-05T00:58:26.598Z,13.70
2018-02-05T00:58:58.635Z,13.70
2018-02-05T00:59:30.499Z,13.80
2018-02-05T01:00:02.596Z,13.80
2018-02-05T01:00:34.499Z,13.80
2018-02-05T01:01:06.436Z,13.80
2018-02-05T01:01:38.701Z,13.80
2018-02-05T01:02:10.856Z,13.80
2018-02-05T01:02:42.982Z,13.80
2018-02-05T01:03:15.133Z,13.80
2018-02-05T01:03:47.485Z,13.80
2018-02-05T01:04:19.627Z,13.80
2018-02-05T01:04:51.748Z,13.80
2018-02-05T01:05:23.927Z,13.80
2018-02-05T01:05:56.066Z,13.80
2018-02-05T01:06:28.154Z,13.80
2018-02-05T01:07:00.989Z,13.80
2018-02-05T01:07:33.072Z,13.80
2018-02-05T01:08:06.023Z,13.80
2018-02-05T01:08:37.985Z,13.80
2018-02-05T01:09:10.960Z,13.80
2018-02-05T01:09:43.867Z,13.80
2018-02-05T01:10:16.114Z,13.80
2018-02-05T01:10:48.011Z,13.80
2018-02-05T01:11:20.233Z,13.80
2018-02-05T01:11:52.189Z,13.80
2018-02-05T01:12:24.227Z,13.80
2018-02-05T01:12:56.621Z,13.70
2018-02-05T01:13:28.685Z,13.80
2018-02-05T01:14:00.657Z,13.80
2018-02-05T01:14:33.425Z,13.80
2018-02-05T01:15:06.227Z,13.80
2018-02-05T01:15:38.180Z,13.80
2018-02-05T01:16:10.180Z,13.80
2018-02-05T01:16:42.290Z,13.80
2018-02-05T01:17:14.433Z,13.80
2018-02-05T01:17:47.203Z,13.80
2018-02-05T01:18:19.145Z,13.80
2018-02-05T01:18:51.299Z,13.80
2018-02-05T01:19:23.199Z,13.80
2018-02-05T01:19:55.351Z,13.80
2018-02-05T01:20:27.433Z,13.80
2018-02-05T01:20:59.447Z,13.80
2018-02-05T01:21:31.565Z,13.80
2018-02-05T01:22:03.540Z,13.80
2018-02-05T01:22:35.628Z,13.80
2018-02-05T01:23:08.563Z,13.80
2018-02-05T01:23:40.644Z,13.80
2018-02-05T01:24:12.843Z,13.80
2018-02-05T01:24:44.787Z,13.80
2018-02-05T01:25:16.844Z,13.80
2018-02-05T01:25:48.872Z,13.80
2018-02-05T01:26:21.694Z,13.80
2018-02-05T01:26:53.826Z,13.80
2018-02-05T01:27:25.727Z,13.80
2018-02-05T01:27:58.605Z,13.80
2018-02-05T01:28:31.282Z,13.80
2018-02-05T01:29:03.243Z,13.80
2018-02-05T01:29:35.319Z,13.80
2018-02-05T01:30:07.355Z,13.80
2018-02-05T01:30:39.432Z,13.80
2018-02-05T01:31:11.376Z,13.80
2018-02-05T01:31:43.718Z,13.80
2018-02-05T01:32:15.971Z,13.80
2018-02-05T01:32:48.004Z,13.80
2018-02-05T01:33:20.115Z,13.80
2018-02-05T01:33:52.177Z,13.80
2018-02-05T01:34:24.424Z,13.80
2018-02-05T01:34:56.318Z,13.80
2018-02-05T01:35:28.260Z,13.80
2018-02-05T01:36:00.095Z,13.80
2018-02-05T01:36:32.786Z,13.80
2018-02-05T01:37:04.894Z,13.80
2018-02-05T01:37:36.885Z,13.80
2018-02-05T01:38:08.868Z,13.80
2018-02-05T01:38:41.219Z,13.80
2018-02-05T01:39:13.361Z,13.80
2018-02-05T01:39:45.354Z,13.80
2018-02-05T01:40:17.481Z,13.80
2018-02-05T01:40:49.494Z,13.80
2018-02-05T01:41:21.669Z,13.80
2018-02-05T01:41:53.923Z,13.80
2018-02-05T01:42:25.978Z,13.80
2018-02-05T01:42:57.927Z,13.80
2018-02-05T01:43:30.068Z,13.90
2018-02-05T01:44:02.287Z,13.80
2018-02-05T01:44:35.086Z,13.80
2018-02-05T01:45:07.583Z,13.80
2018-02-05T01:45:39.546Z,13.80
2018-02-05T01:46:11.612Z,13.80
2018-02-05T01:46:43.849Z,13.80
2018-02-05T01:47:15.810Z,13.80
2018-02-05T01:47:47.810Z,13.80
2018-02-05T01:48:20.273Z,13.80
2018-02-05T01:48:52.370Z,13.80
2018-02-05T01:49:24.392Z,13.80
2018-02-05T01:49:56.468Z,13.80
2018-02-05T01:50:28.518Z,13.80
2018-02-05T01:51:00.984Z,13.80
2018-02-05T01:51:34.413Z,13.80
2018-02-05T01:52:07.817Z,13.80
2018-02-05T01:52:40.146Z,13.80
2018-02-05T01:53:13.027Z,13.80
2018-02-05T01:53:45.287Z,13.80
2018-02-05T01:54:18.550Z,13.80
2018-02-05T01:54:52.424Z,13.80
2018-02-05T01:55:25.520Z,13.80
2018-02-05T01:55:59.093Z,13.80
2018-02-05T01:56:31.190Z,13.80
2018-02-05T01:57:03.271Z,13.80
2018-02-05T01:57:35.978Z,13.80
2018-02-05T01:58:08.849Z,13.80
2018-02-05T01:58:41.890Z,13.90
2018-02-05T01:59:13.911Z,13.90
2018-02-05T01:59:45.853Z,13.90
2018-02-05T02:00:17.936Z,13.90
2018-02-05T02:00:49.913Z,13.90
2018-02-05T02:01:22.808Z,13.90
2018-02-05T02:01:55.547Z,13.90
2018-02-05T02:02:27.955Z,13.90
2018-02-05T02:03:00.159Z,13.80
2018-02-05T02:03:32.281Z,13.90
2018-02-05T02:04:04.428Z,13.90
2018-02-05T02:04:36.607Z,13.90
2018-02-05T02:05:08.572Z,13.80
2018-02-05T02:05:40.793Z,13.80
2018-02-05T02:06:12.769Z,13.80
2018-02-05T02:06:45.066Z,13.80
2018-02-05T02:07:17.957Z,13.80
2018-02-05T02:07:50.184Z,13.80
2018-02-05T02:08:22.832Z,13.80
2018-02-05T02:08:55.858Z,13.80
2018-02-05T02:09:27.888Z,13.80
2018-02-05T02:09:59.975Z,13.90
2018-02-05T02:10:31.990Z,13.80
2018-02-05T02:11:03.937Z,13.90
2018-02-05T02:11:36.599Z,13.90
2018-02-05T02:12:09.417Z,13.80
2018-02-05T02:12:41.321Z,13.90
2018-02-05T02:13:13.392Z,13.90
2018-02-05T02:13:45.447Z,13.80
2018-02-05T02:14:17.716Z,13.80
2018-02-05T02:14:49.710Z,13.80
2018-02-05T02:15:22.446Z,13.80
2018-02-05T02:15:54.308Z,13.80
2018-02-05T02:16:26.599Z,13.90
2018-02-05T02:16:59.464Z,13.90
2018-02-05T02:17:32.249Z,13.90
2018-02-05T02:18:04.533Z,13.90
2018-02-05T02:18:36.496Z,13.90
2018-02-05T02:19:08.515Z,13.90
2018-02-05T02:19:40.434Z,13.90
2018-02-05T02:20:13.393Z,13.90
2018-02-05T02:20:45.769Z,13.90
2018-02-05T02:21:18.219Z,13.90
2018-02-05T02:21:50.224Z,13.80
2018-02-05T02:22:22.716Z,13.80
2018-02-05T02:22:54.701Z,13.80
2018-02-05T02:23:27.346Z,13.80
2018-02-05T02:23:59.445Z,13.80
2018-02-05T02:24:31.604Z,13.80
2018-02-05T02:25:04.023Z,13.80
2018-02-05T02:25:36.113Z,13.80
2018-02-05T02:26:08.194Z,13.80
2018-02-05T02:26:40.191Z,13.90
2018-02-05T02:27:12.900Z,13.80
2018-02-05T02:27:45.074Z,13.80
2018-02-05T02:28:17.012Z,13.80
2018-02-05T02:28:49.250Z,13.80
2018-02-05T02:29:22.242Z,13.80
2018-02-05T02:29:54.241Z,13.80
2018-02-05T02:30:26.993Z,13.80
2018-02-05T02:30:59.693Z,13.80
2018-02-05T02:31:31.646Z,13.80
2018-02-05T02:32:03.573Z,13.80
2018-02-05T02:32:36.388Z,13.80
2018-02-05T02:33:08.777Z,13.80
2018-02-05T02:33:41.207Z,13.80
2018-02-05T02:34:13.455Z,13.80
2018-02-05T02:34:45.459Z,13.80
2018-02-05T02:35:18.300Z,13.80
2018-02-05T02:35:50.475Z,13.80
2018-02-05T02:36:22.675Z,13.80
2018-02-05T02:36:54.725Z,13.90
2018-02-05T02:37:26.861Z,13.80
2018-02-05T02:37:59.078Z,13.80
2018-02-05T02:38:30.992Z,13.80
2018-02-05T02:39:02.998Z,13.80
2018-02-05T02:39:35.363Z,13.80
2018-02-05T02:40:07.405Z,13.80
2018-02-05T02:40:40.110Z,13.90
2018-02-05T02:41:12.369Z,13.80
2018-02-05T02:41:44.392Z,13.80
2018-02-05T02:42:17.516Z,13.80
2018-02-05T02:42:49.603Z,13.80
2018-02-05T02:43:21.888Z,13.60
2018-02-05T02:43:54.027Z,13.80
2018-02-05T02:44:26.678Z,13.80
2018-02-05T02:44:59.435Z,13.80
2018-02-05T02:45:31.706Z,13.80
2018-02-05T02:46:04.707Z,13.80
2018-02-05T02:46:36.817Z,13.80
2018-02-05T02:47:08.874Z,13.80
2018-02-05T02:47:41.532Z,13.90
2018-02-05T02:48:13.706Z,13.80
2018-02-05T02:48:46.457Z,13.80
2018-02-05T02:49:18.519Z,13.90
2018-02-05T02:49:50.794Z,13.80
2018-02-05T02:50:23.829Z,13.80
2018-02-05T02:50:55.848Z,13.80
2018-02-05T02:51:28.478Z,13.80
2018-02-05T02:52:01.486Z,13.80
2018-02-05T02:52:33.681Z,13.80
2018-02-05T02:53:05.711Z,13.80
2018-02-05T02:53:37.902Z,13.80
2018-02-05T02:54:10.768Z,13.80
2018-02-05T02:54:42.908Z,13.90
2018-02-05T02:55:15.019Z,13.80
2018-02-05T02:55:47.657Z,13.80
2018-02-05T02:56:20.866Z,13.80
2018-02-05T02:56:53.017Z,13.80
2018-02-05T02:57:24.992Z,13.90
2018-02-05T02:57:56.920Z,13.80
2018-02-05T02:58:28.876Z,13.80
2018-02-05T02:59:00.846Z,13.80
2018-02-05T02:59:32.909Z,13.80
2018-02-05T03:00:05.048Z,13.80
2018-02-05T03:00:37.289Z,13.80
2018-02-05T03:01:09.372Z,13.80
2018-02-05T03:01:41.707Z,13.80
2018-02-05T03:02:13.913Z,13.80
2018-02-05T03:02:46.637Z,13.80
2018-02-05T03:03:18.716Z,13.80
2018-02-05T03:03:50.599Z,13.80
2018-02-05T03:04:22.644Z,13.80
2018-02-05T03:04:54.869Z,13.80
2018-02-05T03:05:26.824Z,13.80
2018-02-05T03:05:58.667Z,13.80
2018-02-05T03:06:30.806Z,13.80
2018-02-05T03:07:02.758Z,13.80
2018-02-05T03:07:35.115Z,13.80
2018-02-05T03:08:07.218Z,13.80
2018-02-05T03:08:39.421Z,13.80
2018-02-05T03:09:11.514Z,13.80
2018-02-05T03:09:44.321Z,13.80
2018-02-05T03:10:16.417Z,13.80
2018-02-05T03:10:49.384Z,13.80
2018-02-05T03:11:21.619Z,13.80
2018-02-05T03:11:53.618Z,13.80
2018-02-05T03:12:25.634Z,13.80
2018-02-05T03:12:57.936Z,13.80
2018-02-05T03:13:29.871Z,13.80
2018-02-05T03:14:02.572Z,13.80
2018-02-05T03:14:34.560Z,13.80
2018-02-05T03:15:06.772Z,13.80
2018-02-05T03:15:38.923Z,13.80
2018-02-05T03:16:11.006Z,13.80
2018-02-05T03:16:43.956Z,13.80
2018-02-05T03:17:16.115Z,13.80
2018-02-05T03:17:49.065Z,13.80
2018-02-05T03:18:21.232Z,13.80
2018-02-05T03:18:53.334Z,13.80
2018-02-05T03:19:25.247Z,13.80
2018-02-05T03:19:57.694Z,13.80
2018-02-05T03:20:29.681Z,13.80
2018-02-05T03:21:02.018Z,13.80
2018-02-05T03:21:34.096Z,13.80
2018-02-05T03:22:06.913Z,13.80
2018-02-05T03:22:39.181Z,13.80
2018-02-05T03:23:11.333Z,13.80
2018-02-05T03:23:43.942Z,13.80
2018-02-05T03:24:16.250Z,13.80
2018-02-05T03:24:48.297Z,13.80
2018-02-05T03:25:20.256Z,13.80
2018-02-05T03:25:52.282Z,13.80
2018-02-05T03:26:24.284Z,13.80
2018-02-05T03:26:56.410Z,13.80
2018-02-05T03:27:28.291Z,13.80
2018-02-05T03:28:00.239Z,13.80
2018-02-05T03:28:32.439Z,13.80
2018-02-05T03:29:05.160Z,13.80
2018-02-05T03:29:38.391Z,13.80
2018-02-05T03:30:10.634Z,13.80
2018-02-05T03:30:42.780Z,13.80
2018-02-05T03:31:15.524Z,13.80
2018-02-05T03:31:48.355Z,13.80
2018-02-05T03:32:20.417Z,13.80
2018-02-05T03:32:52.390Z,13.80
2018-02-05T03:33:24.451Z,13.80
2018-02-05T03:33:56.313Z,13.80
2018-02-05T03:34:28.626Z,13.80
2018-02-05T03:35:00.752Z,13.80
2018-02-05T03:35:32.715Z,13.80
2018-02-05T03:36:04.854Z,13.80
2018-02-05T03:36:37.009Z,13.80
2018-02-05T03:37:09.330Z,13.80
2018-02-05T03:37:41.390Z,13.80
2018-02-05T03:38:13.830Z,13.80
2018-02-05T03:38:45.896Z,13.80
2018-02-05T03:39:17.947Z,13.80
2018-02-05T03:39:50.882Z,13.80
2018-02-05T03:40:22.861Z,13.80
2018-02-05T03:40:54.736Z,13.80
2018-02-05T03:41:27.685Z,13.80
2018-02-05T03:41:59.721Z,13.80
2018-02-05T03:42:31.818Z,13.80
2018-02-05T03:43:04.618Z,13.80
2018-02-05T03:43:36.624Z,13.80
2018-02-05T03:44:09.349Z,13.80
2018-02-05T03:44:41.332Z,13.80
2018-02-05T03:45:13.439Z,13.80
2018-02-05T03:45:45.587Z,13.80
2018-02-05T03:46:17.852Z,13.80
2018-02-05T03:46:49.807Z,13.80
2018-02-05T03:47:21.777Z,13.80
2018-02-05T03:47:53.917Z,13.80
2018-02-05T03:48:25.893Z,13.90
2018-02-05T03:48:57.894Z,13.90
2018-02-05T03:49:29.918Z,13.80
2018-02-05T03:50:02.670Z,13.80
2018-02-05T03:50:35.521Z,13.80
2018-02-05T03:51:07.710Z,13.80
2018-02-05T03:51:41.390Z,13.80
2018-02-05T03:52:13.493Z,13.90
2018-02-05T03:52:45.754Z,13.80
2018-02-05T03:53:17.881Z,13.80
2018-02-05T03:53:49.937Z,13.80
2018-02-05T03:54:21.998Z,13.80
2018-02-05T03:54:54.047Z,13.80
2018-02-05T03:55:26.164Z,13.90
2018-02-05T03:55:59.225Z,13.90
2018-02-05T03:56:31.244Z,13.90
2018-02-05T03:57:03.202Z,13.90
2018-02-05T03:57:35.406Z,13.80
2018-02-05T03:58:08.432Z,13.80
2018-02-05T03:58:40.415Z,13.90
2018-02-05T03:59:13.254Z,13.80
2018-02-05T03:59:45.417Z,13.90
2018-02-05T04:00:17.635Z,13.80
2018-02-05T04:00:49.764Z,13.80
2018-02-05T04:01:22.767Z,13.80
2018-02-05T04:01:54.884Z,13.80
2018-02-05T04:02:27.066Z,13.80
2018-02-05T04:02:59.440Z,13.80
2018-02-05T04:03:31.512Z,13.80
2018-02-05T04:04:03.672Z,13.80
2018-02-05T04:04:36.104Z,13.80
2018-02-05T04:05:08.527Z,13.80
2018-02-05T04:05:41.591Z,13.80
2018-02-05T04:06:14.613Z,13.80
2018-02-05T04:06:46.877Z,13.80
2018-02-05T04:07:19.428Z,13.80
2018-02-05T04:07:51.691Z,13.80
2018-02-05T04:08:24.009Z,13.80
2018-02-05T04:08:56.875Z,13.80
2018-02-05T04:09:29.679Z,13.80
2018-02-05T04:10:01.833Z,13.80
2018-02-05T04:10:33.917Z,13.80
2018-02-05T04:11:06.127Z,13.80
2018-02-05T04:11:38.307Z,13.80
2018-02-05T04:12:10.325Z,13.80
2018-02-05T04:12:42.773Z,13.80
2018-02-05T04:13:15.065Z,13.80
2018-02-05T04:13:46.974Z,13.80
2018-02-05T04:14:19.546Z,13.80
2018-02-05T04:14:52.552Z,13.80
2018-02-05T04:15:24.423Z,13.80
2018-02-05T04:15:56.579Z,13.80
2018-02-05T04:16:29.466Z,13.80
2018-02-05T04:17:01.529Z,13.80
2018-02-05T04:17:33.576Z,13.80
2018-02-05T04:18:05.650Z,13.80
2018-02-05T04:18:37.817Z,13.80
2018-02-05T04:19:09.931Z,13.80
2018-02-05T04:19:42.277Z,13.80
2018-02-05T04:20:14.670Z,13.80
2018-02-05T04:20:47.405Z,13.80
2018-02-05T04:21:19.778Z,13.80
2018-02-05T04:21:51.880Z,13.80
2018-02-05T04:22:24.140Z,13.80
2018-02-05T04:22:56.194Z,13.80
2018-02-05T04:23:28.452Z,13.80
2018-02-05T04:24:00.597Z,13.80
2018-02-05T04:24:32.619Z,13.80
2018-02-05T04:25:05.473Z,13.80
2018-02-05T04:25:37.918Z,13.80
2018-02-05T04:26:10.243Z,13.80
2018-02-05T04:26:42.418Z,13.80
2018-02-05T04:27:14.584Z,13.80
2018-02-05T04:27:46.551Z,13.80
2018-02-05T04:28:18.476Z,13.80
2018-02-05T04:28:51.001Z,13.80
2018-02-05T04:29:23.190Z,13.80
2018-02-05T04:29:55.570Z,13.80
2018-02-05T04:30:27.618Z,13.80
2018-02-05T04:30:59.800Z,13.80
2018-02-05T04:31:32.604Z,13.80
2018-02-05T04:32:04.786Z,13.80
2018-02-05T04:32:37.113Z,13.80
2018-02-05T04:33:09.189Z,13.80
2018-02-05T04:33:41.553Z,13.80
2018-02-05T04:34:13.783Z,13.80
2018-02-05T04:34:45.954Z,13.80
2018-02-05T04:35:18.301Z,13.80
2018-02-05T04:35:50.376Z,13.80
2018-02-05T04:36:22.602Z,13.80
2018-02-05T04:36:54.761Z,13.80
2018-02-05T04:37:26.708Z,13.80
2018-02-05T04:37:58.939Z,13.80
2018-02-05T04:38:31.038Z,13.80
2018-02-05T04:39:03.066Z,13.80
2018-02-05T04:39:34.963Z,13.80
2018-02-05T04:40:07.064Z,13.80
2018-02-05T04:40:39.735Z,13.80
2018-02-05T04:41:11.812Z,13.80
2018-02-05T04:41:44.465Z,13.80
2018-02-05T04:42:16.685Z,13.80
2018-02-05T04:42:48.794Z,13.80
2018-02-05T04:43:20.805Z,13.80
2018-02-05T04:43:52.933Z,13.80
2018-02-05T04:44:25.703Z,13.80
2018-02-05T04:44:58.494Z,13.80
2018-02-05T04:45:30.682Z,13.80
2018-02-05T04:46:02.827Z,13.80
2018-02-05T04:46:35.061Z,13.80
2018-02-05T04:47:07.251Z,13.80
2018-02-05T04:47:39.285Z,13.80
2018-02-05T04:48:11.417Z,13.80
2018-02-05T04:48:43.663Z,13.80
2018-02-05T04:49:15.830Z,13.80
2018-02-05T04:49:48.029Z,13.80
2018-02-05T04:50:19.999Z,13.80
2018-02-05T04:50:52.955Z,13.80
2018-02-05T04:51:25.119Z,13.80
2018-02-05T04:51:57.006Z,13.80
2018-02-05T04:52:29.399Z,13.80
2018-02-05T04:53:01.948Z,13.80
2018-02-05T04:53:34.034Z,13.80
2018-02-05T04:54:06.322Z,13.80
2018-02-05T04:54:38.606Z,13.80
2018-02-05T04:55:10.775Z,13.80
2018-02-05T04:55:42.804Z,13.80
2018-02-05T04:56:15.268Z,13.80
2018-02-05T04:56:47.663Z,13.80
2018-02-05T04:57:20.748Z,13.80
2018-02-05T04:57:52.785Z,13.70
2018-02-05T04:58:25.020Z,13.80
2018-02-05T04:58:57.150Z,13.80
2018-02-05T04:59:29.405Z,13.80
2018-02-05T05:00:01.378Z,13.80
2018-02-05T05:00:33.520Z,13.80
2018-02-05T05:01:05.580Z,13.80
2018-02-05T05:01:37.654Z,13.80
2018-02-05T05:02:09.833Z,13.80
2018-02-05T05:02:41.946Z,13.90
2018-02-05T05:03:13.989Z,14.00
2018-02-05T05:03:45.938Z,14.10
2018-02-05T05:04:17.884Z,14.20
2018-02-05T05:04:50.063Z,14.30
2018-02-05T05:05:22.102Z,14.40
2018-02-05T05:05:54.101Z,14.50
2018-02-05T05:06:26.925Z,14.60
2018-02-05T05:06:58.931Z,14.60
2018-02-05T05:07:31.723Z,14.80
2018-02-05T05:08:03.882Z,14.70
2018-02-05T05:08:36.377Z,14.80
2018-02-05T05:09:08.524Z,14.90
2018-02-05T05:09:40.591Z,14.90
2018-02-05T05:10:12.796Z,14.90
2018-02-05T05:10:44.692Z,14.90
2018-02-05T05:11:16.921Z,15.00
2018-02-05T05:11:48.861Z,15.00
2018-02-05T05:12:21.088Z,15.00
2018-02-05T05:12:53.242Z,15.00
2018-02-05T05:13:25.208Z,15.10
2018-02-05T05:13:57.101Z,15.10
2018-02-05T05:14:29.770Z,15.10
2018-02-05T05:15:02.802Z,15.10
2018-02-05T05:15:34.995Z,15.10
2018-02-05T05:16:07.889Z,15.20
2018-02-05T05:16:39.841Z,15.20
2018-02-05T05:17:11.932Z,15.20
2018-02-05T05:17:43.985Z,15.20
2018-02-05T05:18:15.949Z,15.20
2018-02-05T05:18:47.880Z,15.20
2018-02-05T05:19:19.936Z,15.20
2018-02-05T05:19:51.804Z,15.20
2018-02-05T05:20:23.955Z,15.20
2018-02-05T05:20:56.088Z,15.20
2018-02-05T05:21:28.638Z,15.20
2018-02-05T05:22:00.687Z,15.20
2018-02-05T05:22:32.744Z,15.20
2018-02-05T05:23:04.966Z,15.30
2018-02-05T05:23:36.966Z,15.30
2018-02-05T05:24:09.242Z,15.30
2018-02-05T05:24:41.395Z,15.30
2018-02-05T05:25:13.606Z,15.30
2018-02-05T05:25:45.762Z,15.30
2018-02-05T05:26:17.910Z,15.30
2018-02-05T05:26:50.067Z,15.30
2018-02-05T05:27:23.049Z,15.30
2018-02-05T05:27:54.992Z,15.30
2018-02-05T05:28:27.031Z,15.30
2018-02-05T05:28:59.064Z,15.30
2018-02-05T05:29:31.198Z,15.30
2018-02-05T05:30:03.432Z,15.30
2018-02-05T05:30:35.234Z,15.30
2018-02-05T05:31:07.564Z,15.30
2018-02-05T05:31:40.300Z,15.30
2018-02-05T05:32:12.305Z,15.30
2018-02-05T05:32:44.368Z,15.30
2018-02-05T05:33:16.457Z,15.30
2018-02-05T05:33:48.543Z,15.30
2018-02-05T05:34:21.336Z,15.30
2018-02-05T05:34:53.423Z,15.30
2018-02-05T05:35:25.472Z,15.40
2018-02-05T05:35:57.545Z,15.40
2018-02-05T05:36:29.547Z,15.40
2018-02-05T05:37:01.782Z,15.40
2018-02-05T05:37:33.958Z,15.40
2018-02-05T05:38:06.004Z,15.40
2018-02-05T05:38:38.078Z,15.30
2018-02-05T05:39:10.239Z,15.40
2018-02-05T05:39:42.604Z,15.30
2018-02-05T05:40:14.733Z,15.40
2018-02-05T05:40:46.925Z,15.40
2018-02-05T05:41:18.958Z,15.40
2018-02-05T05:41:50.979Z,15.40
2018-02-05T05:42:23.040Z,15.40
2018-02-05T05:42:54.971Z,15.40
2018-02-05T05:43:26.942Z,15.40
2018-02-05T05:43:58.884Z,15.40
2018-02-05T05:44:30.906Z,15.40
2018-02-05T05:45:03.652Z,15.40
2018-02-05T05:45:36.433Z,15.40
2018-02-05T05:46:09.466Z,15.40
2018-02-05T05:46:41.396Z,15.40
2018-02-05T05:47:13.481Z,15.40
2018-02-05T05:47:45.400Z,15.40
2018-02-05T05:48:17.371Z,15.40
2018-02-05T05:48:49.467Z,15.40
2018-02-05T05:49:22.209Z,15.40
2018-02-05T05:49:54.276Z,15.40
2018-02-05T05:50:26.176Z,15.40
2018-02-05T05:50:58.182Z,15.40
2018-02-05T05:51:30.987Z,15.50
2018-02-05T05:52:02.860Z,15.40
2018-02-05T05:52:34.989Z,15.50
2018-02-05T05:53:07.124Z,15.50
2018-02-05T05:53:39.087Z,15.50
2018-02-05T05:54:11.315Z,15.50
2018-02-05T05:54:44.152Z,15.40
2018-02-05T05:55:16.055Z,15.40
2018-02-05T05:55:48.315Z,15.50
2018-02-05T05:56:20.578Z,15.50
2018-02-05T05:56:52.592Z,15.50
2018-02-05T05:57:25.511Z,15.50
2018-02-05T05:57:57.427Z,15.50
2018-02-05T05:58:29.522Z,15.50
2018-02-05T05:59:01.661Z,15.50
2018-02-05T05:59:33.549Z,15.50
2018-02-05T06:00:05.508Z,15.50
2018-02-05T06:00:38.361Z,15.50
2018-02-05T06:01:10.284Z,15.50
2018-02-05T06:01:42.254Z,15.50
2018-02-05T06:02:14.167Z,15.50
2018-02-05T06:02:46.360Z,15.50
2018-02-05T06:03:18.297Z,15.50
2018-02-05T06:03:50.226Z,15.50
2018-02-05T06:04:22.454Z,15.50
2018-02-05T06:04:54.555Z,15.50
2018-02-05T06:05:26.676Z,15.50
2018-02-05T06:05:58.671Z,15.50
2018-02-05T06:06:30.634Z,15.50
2018-02-05T06:07:03.395Z,15.50
2018-02-05T06:07:35.379Z,15.50
2018-02-05T06:08:08.368Z,15.50
2018-02-05T06:08:40.685Z,15.50
2018-02-05T06:09:12.786Z,15.50
2018-02-05T06:09:44.661Z,15.50
2018-02-05T06:10:16.571Z,15.50
2018-02-05T06:10:48.532Z,15.50
2018-02-05T06:11:20.895Z,15.50
2018-02-05T06:11:53.384Z,15.60
2018-02-05T06:12:25.757Z,15.50
2018-02-05T06:12:57.986Z,15.60
2018-02-05T06:13:30.284Z,15.60
2018-02-05T06:14:02.859Z,15.60
2018-02-05T06:14:35.736Z,15.60
2018-02-05T06:15:08.677Z,15.60
2018-02-05T06:15:41.018Z,15.60
2018-02-05T06:16:13.412Z,15.60
2018-02-05T06:16:45.453Z,15.60
2018-02-05T06:17:17.376Z,15.60
2018-02-05T06:17:49.501Z,15.60
2018-02-05T06:18:21.754Z,15.60
2018-02-05T06:18:54.185Z,15.60
2018-02-05T06:19:26.517Z,15.60
2018-02-05T06:19:58.680Z,15.60
2018-02-05T06:20:31.385Z,15.60
2018-02-05T06:21:03.568Z,15.60
2018-02-05T06:21:35.677Z,15.60
2018-02-05T06:22:08.846Z,15.60
2018-02-05T06:22:41.568Z,15.60
2018-02-05T06:23:13.652Z,15.60
2018-02-05T06:23:45.771Z,15.60
2018-02-05T06:24:17.771Z,15.60
2018-02-05T06:24:50.901Z,15.60
2018-02-05T06:25:23.001Z,15.60
2018-02-05T06:25:55.958Z,15.60
2018-02-05T06:26:27.868Z,15.60
2018-02-05T06:27:00.121Z,15.60
2018-02-05T06:27:32.066Z,15.60
2018-02-05T06:28:04.375Z,15.60
2018-02-05T06:28:36.526Z,15.60
2018-02-05T06:29:08.885Z,15.60
2018-02-05T06:29:41.164Z,15.60
2018-02-05T06:30:13.398Z,15.60
2018-02-05T06:30:45.578Z,15.60
2018-02-05T06:31:17.797Z,15.60
2018-02-05T06:31:49.870Z,15.60
2018-02-05T06:32:22.904Z,15.60
2018-02-05T06:32:55.290Z,15.60
2018-02-05T06:33:27.653Z,15.60
2018-02-05T06:33:59.702Z,15.60
2018-02-05T06:34:32.431Z,15.60
2018-02-05T06:35:04.477Z,15.60
2018-02-05T06:35:36.427Z,15.60
2018-02-05T06:36:08.707Z,15.60
2018-02-05T06:36:40.815Z,15.60
2018-02-05T06:37:13.129Z,15.60
2018-02-05T06:37:45.076Z,15.60
2018-02-05T06:38:17.139Z,15.60
2018-02-05T06:38:49.202Z,15.60
2018-02-05T06:39:21.913Z,15.60
2018-02-05T06:39:54.047Z,15.60
2018-02-05T06:40:26.017Z,15.70
2018-02-05T06:40:58.132Z,15.70
2018-02-05T06:41:31.059Z,15.60
2018-02-05T06:42:03.909Z,15.60
2018-02-05T06:42:35.918Z,15.60
2018-02-05T06:43:08.938Z,15.60
2018-02-05T06:43:41.320Z,15.70
2018-02-05T06:44:13.453Z,15.60
2018-02-05T06:44:45.226Z,15.70
2018-02-05T06:45:17.512Z,15.70
2018-02-05T06:45:49.970Z,15.70
2018-02-05T06:46:22.821Z,15.70
2018-02-05T06:46:55.136Z,15.60
2018-02-05T06:47:27.173Z,15.60
2018-02-05T06:47:59.442Z,15.70
2018-02-05T06:48:31.476Z,15.70
2018-02-05T06:49:03.399Z,15.70
2018-02-05T06:49:35.463Z,15.70
2018-02-05T06:50:08.471Z,15.70
2018-02-05T06:50:40.846Z,15.60
2018-02-05T06:51:12.930Z,15.70
2018-02-05T06:51:45.701Z,15.70
2018-02-05T06:52:17.659Z,15.60
2018-02-05T06:52:50.454Z,15.70
2018-02-05T06:53:22.504Z,15.60
2018-02-05T06:53:54.588Z,15.70
2018-02-05T06:54:26.661Z,15.70
2018-02-05T06:54:58.704Z,15.70
2018-02-05T06:55:31.079Z,15.70